Home > Products > Valid Products > TAF

000
FTUS41 KCAR 230532
TAFBGR
TAF
KBGR 230532Z 2306/2406 22005KT P6SM BKN035
     FM231200 25007KT P6SM BKN050
     FM240000 20004KT P6SM SCT015 BKN050=



000
FTUS41 KCAR 230532
TAFBHB
TAF
KBHB 230532Z 2306/2406 25006KT P6SM BKN090
     FM240000 20004KT P6SM SCT015 BKN050
      AMD LTD TO CLD VIS AND WIND=



000
FTUS41 KCAR 230532
TAFPQI
TAF
KPQI 230532Z 2306/2406 22005KT P6SM OVC025
     FM231200 27010KT P6SM SCT025 BKN050
     FM240300 20004KT P6SM SCT015 OVC040
      AMD LTD TO CLD VIS AND WIND=



000
FTUS41 KCAR 230532
TAFCAR
TAF
KCAR 230532Z 2306/2406 22009KT P6SM OVC025
     FM231200 26006KT P6SM SCT025 BKN050
     FM240200 20005KT P6SM SCT015 OVC040=



000
FTUS41 KCAR 230532
TAFHUL
TAF
KHUL 230532Z 2306/2406 23008KT P6SM SCT025 OVC035
     FM231200 26008KT P6SM SCT025 BKN050
     FM240200 20004KT P6SM SCT015 OVC040=



000
FTUS41 KCAR 230312 AAB
TAFCAR
TAF AMD
KCAR 230312Z 2303/2324 20008KT P6SM BKN025 OVC030
     FM230500 21009KT P6SM OVC040
     FM230700 24006KT P6SM BKN050
     FM231400 27010KT P6SM BKN070=



000
FTUS41 KCAR 230236 AAA
TAFBHB
TAF AMD
KBHB 230236Z 2303/2324 24016KT P6SM BKN090
     FM230400 25013KT P6SM OVC090
     FM231500 25009KT P6SM BKN050
      AMD LTD TO CLD VIS AND WIND=



000
FTUS41 KCAR 230235 AAA
TAFBGR
TAF AMD
KBGR 230235Z 2303/2324 21009KT P6SM BKN050
     FM230400 22007KT P6SM BKN050
     FM231400 26007KT P6SM BKN045=



000
FTUS41 KCAR 230120 AAB
TAFCAR
TAF AMD
KCAR 230120Z 2301/2324 20008KT P6SM SCT025 OVC030
     FM230300 21009KT P6SM OVC040
     FM230700 24006KT P6SM BKN050
     FM231400 27010KT P6SM BKN070=



000
FTUS41 KCAR 222355 AAA
TAFHUL
TAF AMD
KHUL 222355Z 2300/2324 22010G20KT P6SM BKN040
      TEMPO 2300/2302 4SM -SHSN
     FM230300 23008KT P6SM OVC050
     FM231400 27010KT P6SM BKN070=



000
FTUS41 KCAR 222337
TAFHUL
TAF
KHUL 222337Z 2300/2324 22010G20KT P6SM BKN040
     FM230300 23008KT P6SM OVC050
     FM231400 27010KT P6SM BKN070=



000
FTUS41 KCAR 222337
TAFCAR
TAF
KCAR 222337Z 2300/2324 20008KT 5SM -SHSN SCT025 OVC040
     FM230200 21009KT P6SM OVC040
     FM230700 24006KT P6SM BKN050
     FM231400 27010KT P6SM BKN070=



000
FTUS41 KCAR 222337
TAFPQI
TAF
KPQI 222337Z 2300/2324 21012G22KT P6SM SCT025 OVC040
     FM230800 24007KT P6SM OVC050
     FM231400 27010KT P6SM BKN070
      AMD LTD TO CLD VIS AND WIND=



000
FTUS41 KCAR 222337
TAFBHB
TAF
KBHB 222337Z 2300/2324 23014KT P6SM SCT001 BKN250
     FM230100 24016KT P6SM -FZDZ BKN090
     FM230400 25013KT P6SM OVC090
     FM231500 25009KT P6SM BKN050
      AMD LTD TO CLD VIS AND WIND=



000
FTUS41 KCAR 222337
TAFBGR
TAF
KBGR 222337Z 2300/2324 21010KT P6SM BKN120
     FM230100 21009KT P6SM -FZDZ BKN090
     FM230400 22007KT P6SM BKN050
     FM231400 26007KT P6SM BKN045=



000
FTUS41 KCAR 222328
TAFHUL
TAF
KHUL 222328Z 2300/2324 22010G20KT P6SM BKN040
     FM230300 23008KT P6SM OVC050
     FM231400 27010KT P6SM BKN070=



000
FTUS41 KCAR 222328
TAFBHB
TAF
KBHB 222328Z 2300/2324 23014KT P6SM SCT001 BKN250
     FM230100 24016KT P6SM -FZDZ BKN090
     FM230400 25013KT P6SM OVC090
     FM231500 25009KT P6SM BKN050
      AMD LTD TO CLD VIS AND WIND=



000
FTUS41 KCAR 222328
TAFCAR
TAF
KCAR 222328Z 2300/2324 20008KT 5SM -SHSN SCT025 OVC040
     FM230200 21009KT P6SM OVC040
     FM230700 24006KT P6SM BKN050
     FM231400 27010KT P6SM BKN070=



000
FTUS41 KCAR 222328
TAFPQI
TAF
KPQI 222328Z 2300/2324 21012G22KT P6SM SCT025 OVC040
     FM230800 24007KT P6SM OVC050
     FM231400 27010KT P6SM BKN070
      AMD LTD TO CLD VIS AND WIND=



000
FTUS41 KCAR 222328
TAFBGR
TAF
KBGR 222328Z 2300/2324 21010KT P6SM BKN120
     FM230100 21009KT P6SM -FZDZ BKN090
     FM230400 22007KT P6SM BKN050
     FM231400 26007KT P6SM BKN045=



000
FTUS41 KCAR 222151 AAB
TAFCAR
TAF AMD
KCAR 222151Z 2222/2318 22010G20KT P6SM VCSH SCT025 OVC050
      TEMPO 2222/2223 2SM -SHSN BKN030
     FM230200 21009KT P6SM OVC050
     FM230700 24006KT P6SM BKN050
     FM231400 27010KT P6SM BKN070=



000
FTUS41 KCAR 222151 AAB
TAFCAR
TAF AMD
KCAR 222151Z 2222/2318 22010G20KT P6SM VCSH SCT025 OVC050
      TEMPO 2222/2223 2SM -SHSN BKN030
     FM230200 21009KT P6SM OVC050
     FM230700 24006KT P6SM BKN050
     FM231400 27010KT P6SM BKN070=



000
FTUS41 KCAR 221748
TAFBGR
TAF
KBGR 221748Z 2218/2318 21010KT P6SM BKN120
     FM230100 21009KT P6SM -FZDZ BKN090
     FM230400 22007KT P6SM BKN050
     FM231400 26007KT P6SM BKN045=



000
FTUS41 KCAR 221748
TAFBHB
TAF
KBHB 221748Z 2218/2318 23014KT P6SM SCT001 BKN250
     FM230100 24016KT P6SM -FZDZ BKN090
     FM230400 25013KT P6SM OVC090
     FM231500 25009KT P6SM BKN050
      AMD LTD TO CLD VIS AND WIND=



000
FTUS41 KCAR 221748
TAFCAR
TAF
KCAR 221748Z 2218/2318 22010G20KT P6SM VCSH SCT025 OVC050
     FM222100 21009KT P6SM OVC050
     FM230700 24006KT P6SM BKN050
     FM231400 27010KT P6SM BKN070=



000
FTUS41 KCAR 221748
TAFHUL
TAF
KHUL 221748Z 2218/2318 22010G20KT P6SM BKN090
     FM230300 23008KT P6SM OVC050
     FM231400 27010KT P6SM BKN070=



000
FTUS41 KCAR 221748
TAFPQI
TAF
KPQI 221748Z 2218/2318 21012G22KT P6SM SCT025 OVC050
     FM222200 21009KT P6SM OVC050
     FM230800 24007KT P6SM OVC050
     FM231400 27010KT P6SM BKN070
      AMD LTD TO CLD VIS AND WIND=



000
FTUS41 KCAR 221450 AAC
TAFCAR
TAF AMD
KCAR 221450Z 2215/2312 23010G20KT P6SM -SN SCT025 OVC050
     FM222000 21008KT P6SM SCT015 OVC050=



000
FTUS41 KCAR 221131
TAFBGR
TAF
KBGR 221131Z 2212/2312 24006KT P6SM SKC
     FM221500 22010G18KT P6SM BKN100
     FM222200 21008KT P6SM SCT035 BKN100=



000
FTUS41 KCAR 221131
TAFBHB
TAF
KBHB 221131Z 2212/2312 25005KT P6SM SKC
     FM221500 24010G20KT P6SM BKN100
     FM230000 23008G18KT P6SM VCSH SCT040 BKN080
      AMD LTD TO CLD VIS AND WIND=



000
FTUS41 KCAR 221131
TAFCAR
TAF
KCAR 221131Z 2212/2312 25006KT P6SM SCT120
     FM221400 23010G20KT P6SM BKN025 OVC050
     FM222200 21008KT P6SM SCT015 OVC050=



000
FTUS41 KCAR 221131
TAFPQI
TAF
KPQI 221131Z 2212/2312 24005KT P6SM SCT120
     FM221500 23011G20KT P6SM SCT030 BKN080
     FM222200 21010KT P6SM SCT020 BKN060
      AMD LTD TO CLD VIS AND WIND=



000
FTUS41 KCAR 221131
TAFHUL
TAF
KHUL 221131Z 2212/2312 25007KT P6SM FEW120
     FM221500 22010G18KT P6SM SCT035 BKN050
     FM222200 23007KT P6SM BKN050=



000
FTUS41 KCAR 220535
TAFBHB
TAF
KBHB 220535Z 2206/2306 29005KT P6SM SKC
     FM221600 24010G20KT P6SM BKN100
      AMD LTD TO CLD VIS AND WIND=



000
FTUS41 KCAR 220535
TAFHUL
TAF
KHUL 220535Z 2206/2306 29007KT P6SM FEW250
     FM221600 22010G18KT P6SM SCT035 BKN050
     FM222200 23007KT P6SM BKN050=



000
FTUS41 KCAR 220535
TAFCAR
TAF
KCAR 220535Z 2206/2306 26006KT P6SM SCT250
     FM221500 23010G20KT P6SM BKN025 OVC050
     FM222200 21008KT P6SM SCT015 OVC050=



000
FTUS41 KCAR 220535
TAFBGR
TAF
KBGR 220535Z 2206/2306 29006KT P6SM SKC
     FM221600 22010G18KT P6SM BKN100
     FM222200 21008KT P6SM SCT035 BKN100=



000
FTUS41 KCAR 220535
TAFPQI
TAF
KPQI 220535Z 2206/2306 25004KT P6SM SCT250
     FM221600 23011G20KT P6SM SCT030 BKN080
     FM222200 21010KT P6SM SCT020 BKN060
      AMD LTD TO CLD VIS AND WIND=



000
FTUS41 KCAR 212320
TAFHUL
TAF
KHUL 212320Z 2200/2224 29008KT P6SM SCT120
     FM221000 29004KT P6SM BKN250
     FM221600 22010KT P6SM BKN035=



000
FTUS41 KCAR 212320
TAFPQI
TAF
KPQI 212320Z 2200/2224 29010KT P6SM SCT120
     FM220900 28006KT P6SM BKN250
     FM221600 23011KT P6SM SCT025 BKN100
      AMD LTD TO CLD VIS AND WIND=



000
FTUS41 KCAR 212320
TAFCAR
TAF
KCAR 212320Z 2200/2224 28010KT P6SM SCT120
     FM220800 26006KT P6SM BKN200
     FM221500 23010KT P6SM SCT025 BKN050=



000
FTUS41 KCAR 212320
TAFBGR
TAF
KBGR 212320Z 2200/2224 30011KT P6SM SKC
     FM220300 29006KT P6SM SKC
     FM221600 22010KT P6SM SCT100=



000
FTUS41 KCAR 212320
TAFBHB
TAF
KBHB 212320Z 2200/2224 29010KT P6SM SCT120
     FM220600 28006KT P6SM SKC
     FM221600 25012KT P6SM SCT120
      AMD LTD TO CLD VIS AND WIND=



000
FTUS41 KCAR 211745
TAFBHB
TAF
KBHB 211745Z 2118/2218 31012G22KT P6SM BKN045
     FM212200 29010KT P6SM SCT120
     FM220600 28006KT P6SM SKC
     FM221600 25012KT P6SM SCT120
      AMD LTD TO CLD VIS AND WIND=



000
FTUS41 KCAR 211745
TAFBGR
TAF
KBGR 211745Z 2118/2218 30015G25KT P6SM SCT050
     FM212200 30011KT P6SM SKC
     FM220300 29006KT P6SM SKC
     FM221600 22010KT P6SM SCT100=



000
FTUS41 KCAR 211745
TAFCAR
TAF
KCAR 211745Z 2118/2218 31015G25KT P6SM SCT025 BKN045
     FM212200 28010KT P6SM SCT120
     FM220800 26006KT P6SM BKN200
     FM221500 23010KT P6SM SCT025 BKN050=



000
FTUS41 KCAR 211745
TAFHUL
TAF
KHUL 211745Z 2118/2218 30012G22KT P6SM SCT025 BKN050
     FM212200 29008KT P6SM SCT120
     FM221000 29004KT P6SM BKN250
     FM221600 22010KT P6SM BKN035=



000
FTUS41 KCAR 211745
TAFPQI
TAF
KPQI 211745Z 2118/2218 30015G23KT P6SM SCT025 BKN050
     FM212200 29010KT P6SM SCT120
     FM220900 28006KT P6SM BKN250
     FM221600 23011KT P6SM SCT025 BKN100
      AMD LTD TO CLD VIS AND WIND=



000
FTUS41 KCAR 211618 AAA
TAFHUL
TAF AMD
KHUL 211618Z 2116/2212 30012G22KT P6SM BKN025
     FM211700 28010G20KT P6SM SCT025 BKN040=



000
FTUS41 KCAR 211511 AAC
TAFCAR
TAF AMD
KCAR 211511Z 2115/2212 30012G22KT P6SM -SN BKN025
     FM211800 29007KT P6SM SCT025 BKN045=



000
FTUS41 KCAR 211435 AAB
TAFCAR
TAF AMD
KCAR 211435Z 2115/2212 30012G22KT P6SM VCSH SCT025 BKN035
     FM212100 29007KT P6SM SCT070=



000
FTUS41 KCAR 211120
TAFCAR
TAF
KCAR 211120Z 2112/2212 22006KT P6SM BKN025
     FM211500 31016G24KT P6SM VCSH SCT025 BKN035
     FM220000 29007KT P6SM SCT070=



000
FTUS41 KCAR 211120
TAFPQI
TAF
KPQI 211120Z 2112/2212 24004KT P6SM SCT025
     FM211500 30015G23KT P6SM VCSH SCT025 BKN035
     FM212300 28007KT P6SM SCT070
      AMD LTD TO CLD VIS AND WIND=



000
FTUS41 KCAR 211120
TAFHUL
TAF
KHUL 211120Z 2112/2212 21004KT P6SM SKC
     FM211500 30014G23KT P6SM BKN050
     FM220000 28006KT P6SM SCT080=



000
FTUS41 KCAR 211120
TAFBHB
TAF
KBHB 211120Z 2112/2212 24003KT P6SM SKC
     FM211500 29015G25KT P6SM SCT040
     FM220000 29006KT P6SM SKC
      AMD LTD TO CLD VIS AND WIND=



000
FTUS41 KCAR 211120
TAFBGR
TAF
KBGR 211120Z 2112/2212 24006KT P6SM SKC
     FM211400 29015G25KT P6SM SCT040
     FM220000 29006KT P6SM SKC=



000
FTUS41 KCAR 211030 AAA
TAFPQI
TAF AMD
KPQI 211030Z 2111/2206 23005KT P6SM BKN030
     FM211200 28012G22KT P6SM BKN030
     FM211500 30015G23KT P6SM VCSH SCT025 BKN035
      AMD LTD TO CLD VIS AND WIND=



000
FTUS41 KCAR 211030 AAA
TAFCAR
TAF AMD
KCAR 211030Z 2111/2206 23006KT P6SM BKN025
     FM211200 28012G22KT P6SM BKN025
     FM211500 31016G24KT P6SM VCSH SCT025 BKN035=



000
FTUS41 KCAR 210520
TAFBGR
TAF
KBGR 210520Z 2106/2206 00000KT P6SM SKC
     FM211300 29015G25KT P6SM BKN035=



000
FTUS41 KCAR 210520
TAFBHB
TAF
KBHB 210520Z 2106/2206 00000KT P6SM SCT100
     FM211500 29015G25KT P6SM BKN040
      AMD LTD TO CLD VIS AND WIND=



000
FTUS41 KCAR 210520
TAFPQI
TAF
KPQI 210520Z 2106/2206 23005KT P6SM SKC
     FM211200 28012G22KT P6SM BKN040
     FM211500 30015G23KT P6SM VCSH SCT025 BKN035
      AMD LTD TO CLD VIS AND WIND=



000
FTUS41 KCAR 210520
TAFHUL
TAF
KHUL 210520Z 2106/2206 19005KT P6SM SKC
     FM211200 28012G25KT P6SM BKN040=



000
FTUS41 KCAR 210520
TAFCAR
TAF
KCAR 210520Z 2106/2206 23006KT P6SM SKC
     FM211200 28012G22KT P6SM BKN040
     FM211500 31016G24KT P6SM VCSH SCT025 BKN035=



000
FTUS41 KCAR 210056 AAA
TAFHUL
TAF AMD
KHUL 210056Z 2101/2124 25012KT P6SM VCSH BKN035
     FM211200 28012G25KT P6SM BKN040=



000
FTUS41 KCAR 210030 AAB
TAFCAR
TAF AMD
KCAR 210030Z 2101/2124 25012KT P6SM VCSH BKN035
     FM211200 28012G22KT P6SM BKN040=



000
FTUS41 KCAR 210030 AAA
TAFPQI
TAF AMD
KPQI 210030Z 2101/2124 25012KT P6SM VCSH BKN035
     FM211200 28012G22KT P6SM BKN040
      AMD LTD TO CLD VIS AND WIND=



000
FTUS41 KCAR 202330
TAFBHB
TAF
KBHB 202330Z 2100/2124 26010KT P6SM VCSH BKN040 OVC070
     FM211500 29015G25KT P6SM BKN040
      AMD LTD TO CLD VIS AND WIND=



000
FTUS41 KCAR 202330
TAFBGR
TAF
KBGR 202330Z 2100/2124 25010KT P6SM VCSH BKN040
     FM211300 29015G25KT P6SM BKN035=



000
FTUS41 KCAR 202330
TAFCAR
TAF
KCAR 202330Z 2100/2124 22010G18KT 1/2SM SHSN VV005
     FM210100 25012KT P6SM VCSH BKN035
     FM211200 28012G22KT P6SM BKN040=



000
FTUS41 KCAR 202330
TAFHUL
TAF
KHUL 202330Z 2100/2124 22010G18KT 1/2SM SHSN VV005
     FM210200 25012KT P6SM VCSH BKN035
     FM211200 28012G25KT P6SM BKN040=



000
FTUS41 KCAR 202330
TAFPQI
TAF
KPQI 202330Z 2100/2124 22010G18KT 1/2SM SHSN VV005
     FM210100 25012KT P6SM VCSH BKN035
     FM211200 28012G22KT P6SM BKN040
      AMD LTD TO CLD VIS AND WIND=



000
FTUS41 KCAR 201752
TAFBHB
TAF
KBHB 201752Z 2018/2118 23010KT P6SM VCSH BKN040 OVC070
     FM202300 25010KT P6SM BKN040
     FM211500 29015G25KT P6SM BKN040
      AMD LTD TO CLD VIS AND WIND=



000
FTUS41 KCAR 201752
TAFHUL
TAF
KHUL 201752Z 2018/2118 19008KT P6SM SCT035
     FM201900 22010KT P6SM BKN035
      TEMPO 2101/2103 2SM -SHSN VV015
     FM211400 29015G25KT P6SM BKN030=



000
FTUS41 KCAR 201752
TAFPQI
TAF
KPQI 201752Z 2018/2118 22008KT P6SM BKN035
     FM210000 25012G25KT 1SM -SHSN VV010
     FM210300 29012KT P6SM SCT025
     FM211100 29015G25KT P6SM -SHSN BKN025
      AMD LTD TO CLD VIS AND WIND=



000
FTUS41 KCAR 201752
TAFBGR
TAF
KBGR 201752Z 2018/2118 22011KT P6SM SCT050
     FM211500 29015G25KT P6SM BKN035=



000
FTUS41 KCAR 201752
TAFCAR
TAF
KCAR 201752Z 2018/2118 21007KT P6SM -SN OVC035
     FM202330 24012G25KT 1SM -SHSN VV010
     FM210300 28012KT P6SM SCT025
     FM211100 29015G25KT 6SM -SHSN BKN025=



000
FTUS41 KCAR 201616 AAD
TAFCAR
TAF AMD
KCAR 201616Z 2016/2112 12003KT 6SM -SHSN OVC050
     FM201900 15007KT P6SM -SN OVC025
     FM202300 24012KT P6SM VCSH BKN025=



000
FTUS41 KCAR 201519 AAB
TAFPQI
TAF AMD
KPQI 201519Z 2015/2112 16007KT 6SM -SHSN OVC050
     FM201700 22008KT P6SM BKN025
     FM210000 25012KT P6SM VCSH BKN025
      AMD LTD TO CLD VIS AND WIND=



000
FTUS41 KCAR 201519 AAD
TAFHUL
TAF AMD
KHUL 201519Z 2015/2112 VRB04KT 6SM -SN SCT025
     FM201900 22010KT P6SM BKN025=



000
FTUS41 KCAR 201413 AAC
TAFHUL
TAF AMD
KHUL 201413Z 2014/2112 VRB04KT 6SM -SN SCT025
     FM201500 19008KT 5SM -SN OVC025
     FM201900 22010KT P6SM BKN025=



000
FTUS41 KCAR 201413 AAC
TAFHUL
TAF AMD
KHUL 201413Z 2014/2112 VRB04KT 6SM -SN SCT025
     FM201500 19008KT 5SM -SN OVC025
     FM201900 22010KT P6SM BKN025=



000
FTUS41 KCAR 201406 AAB
TAFHUL
TAF AMD
KHUL 201406Z 2014/2112 VRB04KT 6SM -SN OVC025
     FM201500 19008KT 5SM -SN OVC025
     FM201900 22010KT P6SM BKN025=



000
FTUS41 KCAR 201312 AAB
TAFCAR
TAF AMD
KCAR 201312Z 2013/2112 12003KT 6SM -SHSN OVC050
     FM201600 15007KT P6SM -SN OVC025
     FM202300 24012KT P6SM VCSH BKN025=



000
FTUS41 KCAR 201310 AAA
TAFHUL
TAF AMD
KHUL 201310Z 2013/2112 VRB04KT 5SM -SN OVC025
     FM201500 19008KT 5SM -SN OVC025
     FM201900 22010KT P6SM BKN025=



000
FTUS41 KCAR 201310 AAA
TAFPQI
TAF AMD
KPQI 201310Z 2013/2112 16007KT 6SM -SHSN OVC050
     FM201500 18008KT 3SM -SHSN OVC015
     FM201700 22008KT P6SM BKN025
     FM210000 25012KT P6SM VCSH BKN025
      AMD LTD TO CLD VIS AND WIND=



000
FTUS41 KCAR 201205 AAA
TAFCAR
TAF AMD
KCAR 201205Z 2012/2112 12003KT 3SM -SHSN OVC050
      TEMPO 2012/2013 1SM -SHSN BKN025
     FM201600 15007KT P6SM -SN OVC025
     FM202300 24012KT P6SM VCSH BKN025=



000
FTUS41 KCAR 201127
TAFBGR
TAF
KBGR 201127Z 2012/2112 21006KT P6SM BKN090
     FM201400 22008KT P6SM BKN050
     FM201700 22011KT P6SM SCT050=



000
FTUS41 KCAR 201127
TAFCAR
TAF
KCAR 201127Z 2012/2112 12003KT 3SM -SHSN OVC050
     FM201600 15007KT 4SM -SHSN OVC025
     FM202300 24012KT P6SM VCSH BKN025=



000
FTUS41 KCAR 201127
TAFPQI
TAF
KPQI 201127Z 2012/2112 16007KT 5SM -SHSN OVC050
     FM201500 18008KT 3SM -SHSN OVC015
     FM201700 22008KT P6SM BKN025
     FM210000 25012KT P6SM VCSH BKN025
      AMD LTD TO CLD VIS AND WIND=



000
FTUS41 KCAR 201127
TAFBHB
TAF
KBHB 201127Z 2012/2112 26003KT P6SM OVC090
     FM201400 23010KT P6SM VCSH BKN040 OVC070
     FM201900 24010KT P6SM SCT050
      AMD LTD TO CLD VIS AND WIND=



000
FTUS41 KCAR 201127
TAFHUL
TAF
KHUL 201127Z 2012/2112 VRB04KT 5SM -SN OVC035
     FM201500 19008KT 5SM -SN OVC025
     FM201900 22010KT P6SM BKN025=



000
FTUS41 KCAR 201016 AAB
TAFBHB
TAF AMD
KBHB 201016Z 2010/2106 00000KT P6SM SCT050 OVC100
     FM201200 17004KT 5SM -SN OVC030
     FM201400 23010KT P6SM -SHRA BKN025
     FM201700 24010KT P6SM BKN050
      AMD LTD TO CLD VIS AND WIND=



000
FTUS41 KCAR 201016 AAA
TAFBGR
TAF AMD
KBGR 201016Z 2010/2106 20008KT P6SM OVC110
     FM201200 15007KT 6SM -SN OVC040
     FM201400 18008KT P6SM BKN050
     FM201700 22011KT P6SM SCT050=



000
FTUS41 KCAR 200827 AAA
TAFBHB
TAF AMD
KBHB 200827Z 2008/2106 00000KT P6SM OVC030
     FM201000 17004KT 1SM -SN OVC020
     FM201400 23010KT P6SM -SHRA BKN025
     FM201700 24010KT P6SM BKN050
      AMD LTD TO CLD VIS AND WIND=



    US Dept of Commerce
    National Oceanic and Atmospheric Administration
    National Weather Service
    1325 East West Highway
    Silver Spring, MD 20910
    Page Author: NWS Internet Services Team
Disclaimer
Information Quality
Credits
Glossary
Privacy Policy
Freedom of Information Act (FOIA)
About Us
Career Opportunities